Time;durP1;ratioP1;P1;durP2;ratioP2;P2;SDS_P1;SDS_P2;PMS_P1;PMS_P2;Temp;Humidity;BMP_temperature;BMP_pressure;BME280_temperature;BME280_humidity;BME280_pressure;Samples;Min_cycle;Max_cycle;Signal;HPM_P1;HPM_P2
2022/10/07 00:01:32;;;;;;;8.17;5.20;;;;;;;12.84;96.24;99295.31;4167226;28;20653;-84
2022/10/07 00:03:35;;;;;;;8.50;4.60;;;;;;;12.83;96.22;99298.88;4161480;28;20638;-84
2022/10/07 00:05:38;;;;;;;9.70;5.70;;;;;;;12.84;96.34;99300.56;4167114;28;20629;-84
2022/10/07 00:07:41;;;;;;;5.97;4.70;;;;;;;12.85;96.41;99307.50;4169499;28;20649;-84
2022/10/07 00:09:45;;;;;;;7.23;4.70;;;;;;;12.86;96.27;99300.47;4153890;28;20678;-84
2022/10/07 00:11:48;;;;;;;9.03;5.33;;;;;;;12.83;96.77;99292.78;4165103;28;20666;-84
2022/10/07 00:13:53;;;;;;;9.00;4.80;;;;;;;12.81;97.12;99289.41;4164553;28;21009;-84
2022/10/07 00:16:03;;;;;;;7.30;5.17;;;;;;;12.78;96.97;99290.41;4152504;28;20634;-84
2022/10/07 00:18:08;;;;;;;8.10;5.30;;;;;;;12.76;96.74;99292.28;4168368;28;21052;-84
2022/10/07 00:20:11;;;;;;;6.00;4.87;;;;;;;12.75;97.00;99285.34;4156079;28;20633;-84
2022/10/07 00:22:14;;;;;;;6.90;5.10;;;;;;;12.77;97.20;99283.47;4165849;28;21288;-84
2022/10/07 00:24:17;;;;;;;7.77;4.63;;;;;;;12.78;97.37;99285.19;4170000;28;20645;-84
2022/10/07 00:26:23;;;;;;;9.17;4.70;;;;;;;12.78;97.31;99279.94;4155188;28;20718;-84
2022/10/07 00:28:26;;;;;;;7.23;5.40;;;;;;;12.77;96.46;99288.72;4163436;28;20643;-83
2022/10/07 00:30:29;;;;;;;6.57;4.63;;;;;;;12.75;97.13;99282.72;4167498;28;20635;-84
2022/10/07 00:32:32;;;;;;;6.87;4.50;;;;;;;12.75;97.68;99279.28;4175105;28;21257;-84
2022/10/07 00:34:36;;;;;;;7.40;4.63;;;;;;;12.76;97.01;99284.44;4150921;28;20639;-84
2022/10/07 00:36:40;;;;;;;9.77;5.07;;;;;;;12.74;98.04;99275.81;4171334;28;20714;-84
2022/10/07 00:38:43;;;;;;;10.30;5.47;;;;;;;12.73;97.76;99274.13;4151956;28;21335;-84
2022/10/07 00:40:46;;;;;;;5.60;4.30;;;;;;;12.73;98.11;99266.28;4155304;28;20634;-84
2022/10/07 00:42:49;;;;;;;6.87;4.63;;;;;;;12.73;98.14;99265.41;4154829;28;21225;-84
2022/10/07 00:44:52;;;;;;;7.60;4.80;;;;;;;12.72;98.12;99264.59;4163999;28;20622;-84
2022/10/07 00:46:55;;;;;;;8.50;4.67;;;;;;;12.74;98.13;99257.47;4169981;28;20723;-83
2022/10/07 00:49:01;;;;;;;8.77;4.80;;;;;;;12.74;98.51;99260.09;4162422;28;20671;-84
2022/10/07 00:51:07;;;;;;;10.43;4.87;;;;;;;12.75;97.69;99247.88;4179684;28;20729;-84
2022/10/07 00:53:10;;;;;;;12.70;4.50;;;;;;;12.77;97.40;99246.00;4169615;28;20657;-84
2022/10/07 00:55:15;;;;;;;7.30;4.73;;;;;;;12.75;98.41;99247.88;4165182;28;20641;-84
2022/10/07 00:57:20;;;;;;;8.87;4.53;;;;;;;12.75;98.54;99243.47;4167819;28;20672;-84
2022/10/07 00:59:23;;;;;;;6.17;4.70;;;;;;;12.76;98.85;99246.91;4173502;28;20641;-84
2022/10/07 01:01:29;;;;;;;5.90;4.70;;;;;;;12.74;98.80;99247.00;4162219;28;20644;-84
2022/10/07 01:03:34;;;;;;;10.43;4.67;;;;;;;12.76;98.42;99249.53;4151541;28;20623;-84
2022/10/07 01:05:37;;;;;;;8.43;5.17;;;;;;;12.77;98.83;99241.59;4156860;28;20662;-84
2022/10/07 01:07:42;;;;;;;7.53;5.43;;;;;;;12.81;98.36;99247.50;4166415;28;20637;-84
2022/10/07 01:09:48;;;;;;;8.20;4.80;;;;;;;12.82;98.76;99239.59;4160151;28;20735;-84
2022/10/07 01:11:57;;;;;;;6.53;4.80;;;;;;;12.83;98.55;99243.88;4167528;28;20666;-84
2022/10/07 01:14:06;;;;;;;7.63;5.00;;;;;;;12.86;99.57;99241.09;4154188;28;20665;-84
2022/10/07 01:16:15;;;;;;;7.10;4.80;;;;;;;12.88;99.67;99236.59;4174275;28;20680;-84
2022/10/07 01:18:22;;;;;;;10.17;4.67;;;;;;;12.89;99.59;99233.06;4165992;28;20670;-84
2022/10/07 01:20:31;;;;;;;5.73;4.23;;;;;;;12.92;99.66;99227.63;4153967;28;20682;-84
2022/10/07 01:22:44;;;;;;;9.50;5.00;;;;;;;12.94;99.75;99231.00;4170792;28;20676;-84
2022/10/07 01:24:53;;;;;;;7.93;5.10;;;;;;;12.95;99.53;99224.84;4152641;28;20730;-84
2022/10/07 01:27:00;;;;;;;10.77;4.93;;;;;;;12.97;98.54;99224.75;4175198;28;20633;-84
2022/10/07 01:29:10;;;;;;;6.70;4.60;;;;;;;12.97;99.97;99220.34;4171077;28;20629;-84
2022/10/07 01:31:15;;;;;;;10.33;4.50;;;;;;;12.98;99.02;99222.03;4159861;28;20623;-83
2022/10/07 01:33:21;;;;;;;7.80;4.60;;;;;;;12.99;99.07;99213.25;4154360;28;21318;-84
2022/10/07 01:35:27;;;;;;;5.53;4.67;;;;;;;13.01;98.78;99214.00;4168621;28;20692;-84
2022/10/07 01:37:34;;;;;;;9.53;5.10;;;;;;;13.03;99.36;99221.75;4151136;28;20659;-84
2022/10/07 01:39:42;;;;;;;10.30;5.20;;;;;;;13.03;98.88;99211.28;4164996;28;20645;-84
2022/10/07 01:41:45;;;;;;;8.63;4.33;;;;;;;13.03;98.56;99212.13;4157788;28;20638;-84
2022/10/07 01:43:53;;;;;;;8.50;4.63;;;;;;;13.05;99.00;99204.16;4175348;28;20640;-84
2022/10/07 01:45:56;;;;;;;10.37;5.60;;;;;;;13.05;98.25;99205.03;4174803;28;20661;-84
2022/10/07 01:48:00;;;;;;;9.10;5.47;;;;;;;13.06;97.92;99206.69;4165662;28;20669;-84
2022/10/07 01:50:11;;;;;;;7.43;5.03;;;;;;;13.05;98.47;99205.03;4171885;28;20657;-84
2022/10/07 01:52:30;;;;;;;9.77;4.63;;;;;;;13.04;98.20;99202.50;4154368;28;21269;-84
2022/10/07 01:54:42;;;;;;;12.53;5.23;;;;;;;13.05;98.78;99199.78;4168595;28;20762;-84
2022/10/07 01:56:53;;;;;;;11.03;4.73;;;;;;;13.06;98.08;99198.84;4173137;28;20638;-83
2022/10/07 01:59:11;;;;;;;6.87;4.80;;;;;;;13.03;98.58;99188.53;4150665;28;20655;-83
2022/10/07 02:01:18;;;;;;;13.20;6.07;;;;;;;13.04;98.13;99192.84;4167947;28;20622;-84
2022/10/07 02:03:34;;;;;;;6.57;5.07;;;;;;;13.06;98.97;99190.97;4167509;28;20639;-84
2022/10/07 02:05:42;;;;;;;6.23;4.43;;;;;;;13.06;98.63;99190.97;4169187;28;20631;-84
2022/10/07 02:07:53;;;;;;;7.10;5.07;;;;;;;13.07;98.91;99189.22;4169251;28;21194;-84
2022/10/07 02:09:59;;;;;;;7.07;4.70;;;;;;;13.10;98.81;99186.41;4174212;28;20724;-84
2022/10/07 02:12:07;;;;;;;9.17;5.30;;;;;;;13.09;98.14;99177.69;4168176;28;21040;-84
2022/10/07 02:14:14;;;;;;;7.50;4.50;;;;;;;13.11;99.04;99182.84;4164613;28;21007;-83
2022/10/07 02:16:19;;;;;;;6.57;5.07;;;;;;;13.15;98.92;99181.72;4165680;28;20633;-84
2022/10/07 02:18:22;;;;;;;8.47;5.37;;;;;;;13.18;98.73;99181.53;4168138;28;21244;-84
2022/10/07 02:20:30;;;;;;;10.40;5.77;;;;;;;13.20;98.26;99181.34;4152183;28;20625;-83
2022/10/07 02:22:35;;;;;;;10.40;5.60;;;;;;;13.21;98.54;99185.66;4165988;28;20967;-84
2022/10/07 02:24:39;;;;;;;7.70;5.13;;;;;;;13.23;98.79;99175.09;4150735;28;20742;-84
2022/10/07 02:26:45;;;;;;;8.03;4.70;;;;;;;13.22;98.72;99171.63;4183021;28;21241;-84
2022/10/07 02:28:51;;;;;;;7.90;4.90;;;;;;;13.24;99.12;99171.53;4164809;28;20635;-84
2022/10/07 02:30:59;;;;;;;8.50;5.37;;;;;;;13.25;98.89;99167.97;4167331;28;20672;-84
2022/10/07 02:33:04;;;;;;;6.83;5.20;;;;;;;13.29;98.54;99175.56;4164936;28;20660;-84
2022/10/07 02:35:15;;;;;;;10.70;5.60;;;;;;;13.29;98.61;99166.81;4155209;28;20649;-84
2022/10/07 02:37:23;;;;;;;5.97;5.27;;;;;;;13.28;98.89;99165.16;4171784;28;20641;-84
2022/10/07 02:39:26;;;;;;;6.20;5.23;;;;;;;13.27;98.48;99160.84;4170345;28;20704;-83
2022/10/07 02:41:34;;;;;;;9.23;4.83;;;;;;;13.26;98.45;99160.03;4170773;28;20700;-84
2022/10/07 02:43:47;;;;;;;11.20;5.37;;;;;;;13.26;98.49;99154.78;4164277;28;20698;-83
2022/10/07 02:45:57;;;;;;;8.77;4.70;;;;;;;13.28;98.76;99155.50;4166989;28;21212;-83
2022/10/07 02:48:04;;;;;;;11.03;4.80;;;;;;;13.29;98.13;99162.44;4164243;28;20634;-84
2022/10/07 02:50:10;;;;;;;7.90;5.37;;;;;;;13.28;98.26;99152.91;4168488;28;20995;-83
2022/10/07 02:52:17;;;;;;;9.30;5.37;;;;;;;13.29;98.42;99146.72;4170116;28;20637;-84
2022/10/07 02:54:25;;;;;;;10.33;5.60;;;;;;;13.29;98.99;99146.72;4158271;28;21263;-84
2022/10/07 02:56:29;;;;;;;7.10;5.27;;;;;;;13.30;98.24;99139.69;4173334;28;20638;-84
2022/10/07 02:58:33;;;;;;;9.40;5.70;;;;;;;13.29;98.76;99141.50;4160454;28;20734;-84
2022/10/07 03:00:39;;;;;;;11.40;5.30;;;;;;;13.30;97.92;99152.81;4172292;28;20628;-83
2022/10/07 03:02:49;;;;;;;6.60;5.17;;;;;;;13.29;98.80;99146.72;4174239;28;20629;-84
2022/10/07 03:04:52;;;;;;;6.50;5.33;;;;;;;13.30;98.49;99143.16;4168227;28;20630;-84
2022/10/07 03:06:57;;;;;;;7.73;4.80;;;;;;;13.31;98.53;99139.59;4151903;28;20782;-84
2022/10/07 03:09:00;;;;;;;10.23;5.03;;;;;;;13.31;99.23;99144.00;4162564;28;20634;-84
2022/10/07 03:11:03;;;;;;;5.97;4.50;;;;;;;13.31;99.07;99144.00;4161756;28;20638;-83
2022/10/07 03:13:06;;;;;;;8.43;5.53;;;;;;;13.32;98.74;99135.19;4164390;28;20665;-84
2022/10/07 03:15:12;;;;;;;10.47;5.60;;;;;;;13.31;98.89;99138.78;4150575;28;20667;-83
2022/10/07 03:17:15;;;;;;;7.50;4.97;;;;;;;13.31;99.03;99136.16;4167106;28;20688;-84
2022/10/07 03:19:20;;;;;;;7.17;4.90;;;;;;;13.30;98.93;99134.47;4178633;28;20633;-83
2022/10/07 03:21:31;;;;;;;11.53;5.47;;;;;;;13.30;98.65;99126.59;4156593;28;20721;-84
2022/10/07 03:23:35;;;;;;;7.70;5.27;;;;;;;13.30;98.56;99124.81;4150503;28;20630;-84
2022/10/07 03:25:38;;;;;;;7.20;5.17;;;;;;;13.31;98.97;99128.28;4151317;28;20630;-84
2022/10/07 03:27:41;;;;;;;7.47;5.00;;;;;;;13.31;99.33;99129.13;4169144;28;21014;-84
2022/10/07 03:29:45;;;;;;;6.60;4.90;;;;;;;13.33;99.93;99121.16;4146635;28;20639;-84
2022/10/07 03:31:48;;;;;;;8.87;4.50;;;;;;;13.34;99.30;99117.63;4168844;28;21418;-84
2022/10/07 03:33:51;;;;;;;7.47;4.90;;;;;;;13.33;99.50;99122.00;4166417;28;20638;-84
2022/10/07 03:35:56;;;;;;;5.87;4.93;;;;;;;13.35;99.41;99124.53;4150353;28;20705;-84
2022/10/07 03:37:59;;;;;;;8.43;4.80;;;;;;;13.34;99.82;99117.63;4149960;28;20718;-84
2022/10/07 03:40:03;;;;;;;8.23;5.20;;;;;;;13.34;99.67;99117.63;4161227;28;20706;-83
2022/10/07 03:42:07;;;;;;;9.47;4.90;;;;;;;13.33;99.88;99116.75;4167796;28;20726;-84
2022/10/07 03:44:10;;;;;;;8.77;5.20;;;;;;;13.31;99.92;99118.66;4162991;28;20628;-84
2022/10/07 03:46:13;;;;;;;6.37;5.10;;;;;;;13.31;100.00;99109.94;4168014;28;20626;-84
2022/10/07 03:48:18;;;;;;;7.60;5.07;;;;;;;13.32;100.00;99111.63;4153454;28;20644;-84
2022/10/07 03:50:22;;;;;;;8.50;5.00;;;;;;;13.34;100.00;99115.00;4151334;28;20667;-84
2022/10/07 03:52:26;;;;;;;6.30;5.27;;;;;;;13.37;100.00;99106.94;4166082;28;20634;-84
2022/10/07 03:54:30;;;;;;;6.30;4.60;;;;;;;13.38;100.00;99108.59;4150259;28;20637;-84
2022/10/07 03:56:33;;;;;;;10.00;5.53;;;;;;;13.41;100.00;99108.41;4152434;28;21055;-84
2022/10/07 03:58:37;;;;;;;9.17;4.93;;;;;;;13.42;100.00;99110.09;4166423;28;20729;-84
2022/10/07 04:00:43;;;;;;;8.17;4.97;;;;;;;13.45;99.48;99109.91;4154666;28;21255;-84
2022/10/07 04:02:46;;;;;;;9.30;5.30;;;;;;;13.45;99.93;99108.13;4162621;28;20636;-84
2022/10/07 04:04:51;;;;;;;9.10;4.77;;;;;;;13.47;100.00;99101.03;4164608;28;20643;-83
2022/10/07 04:06:55;;;;;;;7.13;4.50;;;;;;;13.53;99.41;99102.41;4151425;28;20628;-83
2022/10/07 04:09:00;;;;;;;11.80;5.03;;;;;;;13.54;99.07;99098.84;4151847;28;20663;-83
2022/10/07 04:11:04;;;;;;;12.53;5.97;;;;;;;13.56;99.05;99094.34;4162664;28;20638;-83
2022/10/07 04:13:08;;;;;;;9.87;5.87;;;;;;;13.57;98.32;99099.47;4162931;28;20714;-84
2022/10/07 04:15:12;;;;;;;9.10;5.20;;;;;;;13.55;98.54;99093.50;4166445;28;21004;-84
2022/10/07 04:17:18;;;;;;;7.03;4.67;;;;;;;13.53;98.17;99097.16;4150280;28;20644;-84
2022/10/07 04:19:21;;;;;;;13.17;5.10;;;;;;;13.53;99.03;99090.16;4168650;28;20638;-84
2022/10/07 04:21:24;;;;;;;7.73;5.33;;;;;;;13.54;98.74;99090.97;4151428;28;20738;-84
2022/10/07 04:23:27;;;;;;;14.70;6.27;;;;;;;13.55;99.23;99092.69;4170917;28;20724;-84
2022/10/07 04:25:36;;;;;;;9.50;5.07;;;;;;;13.57;99.38;99082.94;4174175;28;21184;-84
2022/10/07 04:28:00;;;;;;;9.80;6.10;;;;;;;13.59;99.59;99091.53;4169219;28;20681;-84
2022/10/07 04:30:05;;;;;;;9.83;5.23;;;;;;;13.60;98.96;99091.41;4165002;28;20627;-83
2022/10/07 04:32:08;;;;;;;6.70;4.80;;;;;;;13.60;99.54;99085.34;4167873;28;20630;-84
2022/10/07 04:34:12;;;;;;;7.47;5.00;;;;;;;13.59;98.57;99087.13;4156243;28;20646;-83
2022/10/07 04:36:16;;;;;;;8.70;5.33;;;;;;;13.60;99.17;99082.72;4178675;28;20764;-83
2022/10/07 04:38:25;;;;;;;10.00;5.73;;;;;;;13.59;99.59;99081.03;4174168;28;20737;-83
2022/10/07 04:40:33;;;;;;;7.53;5.30;;;;;;;13.59;99.65;99081.91;4174289;28;20651;-84
2022/10/07 04:44:57;;;;;;;7.33;5.20;;;;;;;13.60;99.48;99075.69;4172687;28;20631;-84
2022/10/07 04:47:01;;;;;;;7.33;5.40;;;;;;;13.60;99.48;99080.09;4174661;28;20642;-84
2022/10/07 04:49:05;;;;;;;9.83;6.30;;;;;;;13.60;99.40;99080.94;4166371;28;20637;-84
2022/10/07 04:51:09;;;;;;;7.63;5.07;;;;;;;13.60;99.79;99080.94;4170798;28;20628;-83
2022/10/07 04:53:15;;;;;;;13.83;5.53;;;;;;;13.63;99.64;99083.38;4166569;28;20627;-84
2022/10/07 04:55:20;;;;;;;9.23;5.50;;;;;;;13.61;99.42;99076.56;4173043;28;20624;-83
2022/10/07 04:57:25;;;;;;;9.50;6.17;;;;;;;13.63;99.75;99082.53;4171697;28;20642;-83
2022/10/07 04:59:28;;;;;;;9.23;6.17;;;;;;;13.64;99.82;99078.97;4164915;28;20643;-84
2022/10/07 05:01:32;;;;;;;9.50;6.30;;;;;;;13.63;99.60;99083.38;4169835;28;20635;-84
2022/10/07 05:03:37;;;;;;;8.13;6.10;;;;;;;13.63;99.61;99072.88;4167207;28;21220;-83
2022/10/07 05:05:42;;;;;;;8.43;6.30;;;;;;;13.64;99.86;99076.34;4170956;28;20988;-84
2022/10/07 05:07:49;;;;;;;8.37;6.13;;;;;;;13.64;100.00;99069.31;4168557;28;20692;-83
2022/10/07 05:09:54;;;;;;;10.93;6.10;;;;;;;13.62;99.56;99075.59;4169833;28;20629;-83
2022/10/07 05:11:57;;;;;;;8.90;6.93;;;;;;;13.61;100.00;99068.69;4168788;28;21570;-83
2022/10/07 05:14:01;;;;;;;12.03;6.23;;;;;;;13.64;99.79;99069.31;4151630;28;20664;-84
2022/10/07 05:16:08;;;;;;;8.53;5.90;;;;;;;13.63;99.76;99069.44;4159202;28;24019;-83
2022/10/07 05:18:12;;;;;;;10.40;6.13;;;;;;;13.64;99.83;99072.78;4168290;28;20665;-83
2022/10/07 05:20:15;;;;;;;10.03;6.03;;;;;;;13.64;100.00;99073.75;4166449;28;22326;-83
2022/10/07 05:22:17;;;;;;;8.73;6.13;;;;;;;13.64;100.00;99065.88;4165704;28;20665;-83
2022/10/07 05:24:21;;;;;;;10.63;6.13;;;;;;;13.64;100.00;99058.84;4169482;28;21223;-83
2022/10/07 05:26:24;;;;;;;9.97;6.73;;;;;;;13.64;100.00;99071.13;4169951;28;20672;-83
2022/10/07 05:28:32;;;;;;;8.10;6.30;;;;;;;13.64;100.00;99067.53;4167897;28;20697;-83
2022/10/07 05:30:37;;;;;;;7.00;6.00;;;;;;;13.66;100.00;99067.44;4168305;28;20627;-83
2022/10/07 05:32:40;;;;;;;13.00;6.60;;;;;;;13.66;100.00;99068.25;4157532;28;20637;-83
2022/10/07 05:34:43;;;;;;;10.60;6.23;;;;;;;13.66;100.00;99065.66;4150584;28;21329;-84
2022/10/07 05:36:47;;;;;;;11.03;6.73;;;;;;;13.66;100.00;99070.88;4164102;28;21362;-84
2022/10/07 05:38:50;;;;;;;7.30;5.57;;;;;;;13.67;100.00;99066.50;4159786;28;20697;-84
2022/10/07 05:40:58;;;;;;;8.93;6.10;;;;;;;13.67;100.00;99069.97;4175741;28;21277;-84
2022/10/07 05:43:03;;;;;;;8.17;6.73;;;;;;;13.69;100.00;99070.69;4155079;28;20638;-84
2022/10/07 05:45:07;;;;;;;9.50;7.30;;;;;;;13.68;100.00;99062.91;4172066;28;21013;-84
2022/10/07 05:47:12;;;;;;;8.60;6.83;;;;;;;13.68;100.00;99063.78;4171131;28;20636;-84
2022/10/07 05:49:16;;;;;;;8.60;5.83;;;;;;;13.71;100.00;99065.34;4169235;28;20622;-84
2022/10/07 05:51:19;;;;;;;11.83;6.97;;;;;;;13.71;100.00;99065.34;4169125;28;21562;-84
2022/10/07 05:53:24;;;;;;;8.13;6.87;;;;;;;13.71;100.00;99060.97;4168276;28;20776;-84
2022/10/07 05:55:27;;;;;;;9.80;7.43;;;;;;;13.75;100.00;99058.97;4169795;28;20630;-84
2022/10/07 05:57:30;;;;;;;16.27;6.43;;;;;;;13.77;100.00;99059.69;4165393;28;20663;-84
2022/10/07 05:59:34;;;;;;;7.40;6.40;;;;;;;13.78;100.00;99054.34;4160092;28;21181;-84
2022/10/07 06:01:39;;;;;;;10.47;6.40;;;;;;;13.79;100.00;99058.66;4170800;28;21224;-84
2022/10/07 06:03:51;;;;;;;9.60;6.47;;;;;;;13.83;100.00;99051.44;4156127;28;20646;-84
2022/10/07 06:05:55;;;;;;;9.63;7.27;;;;;;;13.85;100.00;99053.03;4169522;28;20642;-84
2022/10/07 06:08:00;;;;;;;12.80;6.83;;;;;;;13.88;100.00;99055.44;4143920;28;20639;-84
2022/10/07 06:14:47;;;;;;;8.87;6.67;;;;;;;13.98;100.00;99051.28;4149235;28;20626;-84
2022/10/07 06:16:51;;;;;;;9.60;6.87;;;;;;;14.02;100.00;99041.41;4154699;28;21098;-84
2022/10/07 06:18:56;;;;;;;9.20;5.90;;;;;;;14.04;100.00;99047.38;4154442;28;20677;-84
2022/10/07 06:21:02;;;;;;;9.43;6.83;;;;;;;14.04;100.00;99047.38;4167578;28;20631;-84
2022/10/07 06:23:06;;;;;;;12.90;8.50;;;;;;;14.08;100.00;99048.91;4149075;28;20632;-84
2022/10/07 06:25:10;;;;;;;9.10;7.00;;;;;;;14.12;98.79;99058.25;4165628;28;21244;-84
2022/10/07 06:27:13;;;;;;;9.30;6.90;;;;;;;14.14;99.98;99051.97;4156025;28;20636;-83
2022/10/07 06:29:17;;;;;;;10.77;6.93;;;;;;;14.15;99.34;99056.28;4157286;28;20645;-84
2022/10/07 06:31:24;;;;;;;10.50;8.87;;;;;;;14.19;100.00;99058.59;4150150;28;20640;-84
2022/10/07 06:33:32;;;;;;;15.67;13.93;;;;;;;14.23;99.24;99053.97;4165938;28;20722;-84
2022/10/07 06:35:36;;;;;;;25.97;21.60;;;;;;;14.28;99.89;99054.47;4172920;28;21197;-84
2022/10/07 06:37:40;;;;;;;18.63;16.47;;;;;;;14.30;99.38;99050.81;4166056;28;20691;-84
2022/10/07 06:39:44;;;;;;;11.80;9.03;;;;;;;14.34;99.70;99052.31;4152753;28;20654;-84
2022/10/07 06:41:47;;;;;;;11.13;8.57;;;;;;;14.39;98.26;99049.38;4173868;28;21578;-84
2022/10/07 06:44:00;;;;;;;9.13;7.13;;;;;;;14.45;98.63;99056.78;4168520;28;21092;-84
2022/10/07 06:46:05;;;;;;;12.97;10.60;;;;;;;14.47;99.05;99060.19;4167170;28;20971;-84
2022/10/07 06:48:09;;;;;;;13.33;10.73;;;;;;;14.49;99.85;99047.78;4154213;28;20641;-84
2022/10/07 06:50:12;;;;;;;13.63;9.80;;;;;;;14.53;99.66;99057.13;4168046;28;20694;-84
2022/10/07 06:52:16;;;;;;;10.47;9.30;;;;;;;14.56;98.53;99055.13;4165377;28;20673;-84
2022/10/07 06:54:19;;;;;;;11.03;8.43;;;;;;;14.61;100.00;99058.25;4145866;28;21056;-84
2022/10/07 06:56:22;;;;;;;11.83;8.67;;;;;;;14.64;97.85;99060.69;4166696;28;20705;-84
2022/10/07 06:58:26;;;;;;;12.03;8.50;;;;;;;14.65;99.00;99065.81;4168294;28;20622;-85
2022/10/07 07:00:30;;;;;;;8.70;7.17;;;;;;;14.72;98.10;99063.63;4162470;28;20663;-84
2022/10/07 07:02:34;;;;;;;12.70;6.97;;;;;;;14.78;97.72;99064.03;4162118;28;20644;-83
2022/10/07 07:04:37;;;;;;;9.57;6.67;;;;;;;14.84;98.53;99060.13;4168904;28;20730;-84
2022/10/07 07:06:41;;;;;;;10.40;6.80;;;;;;;14.89;99.21;99061.50;4164257;28;21441;-84
2022/10/07 07:08:48;;;;;;;11.23;6.80;;;;;;;14.94;99.20;99061.19;4152811;28;21194;-83
2022/10/07 07:10:52;;;;;;;10.20;7.37;;;;;;;14.96;97.92;99068.03;4166958;28;20653;-83
2022/10/07 07:12:56;;;;;;;8.00;6.93;;;;;;;14.99;97.00;99067.81;4146412;28;20698;-83
2022/10/07 07:15:00;;;;;;;10.50;7.80;;;;;;;14.97;97.74;99059.16;4163052;28;20710;-83
2022/10/07 07:17:03;;;;;;;10.37;7.73;;;;;;;15.02;96.43;99071.97;4152444;28;20657;-83
2022/10/07 07:19:08;;;;;;;10.07;7.20;;;;;;;15.09;97.08;99060.94;4166371;28;20649;-83
2022/10/07 07:21:11;;;;;;;11.10;7.50;;;;;;;15.14;96.41;99066.72;4167284;28;20647;-83
2022/10/07 07:23:14;;;;;;;14.70;8.33;;;;;;;15.21;96.31;99057.47;4151887;28;20685;-84
2022/10/07 07:25:19;;;;;;;9.40;7.30;;;;;;;15.28;96.03;99066.59;4158707;28;21294;-83
2022/10/07 07:27:22;;;;;;;9.40;7.30;;;;;;;15.37;98.02;99065.94;4154772;28;20727;-83
2022/10/07 07:29:26;;;;;;;13.10;7.10;;;;;;;15.45;98.06;99060.97;4167333;28;20647;-83
2022/10/07 07:31:34;;;;;;;9.97;6.90;;;;;;;15.55;95.94;99067.25;4168324;28;20664;-83
2022/10/07 07:33:38;;;;;;;9.57;7.30;;;;;;;15.63;97.27;99065.72;4150355;28;20703;-84
2022/10/07 07:35:42;;;;;;;8.60;6.63;;;;;;;15.74;94.45;99066.63;4175803;28;20640;-82
2022/10/07 07:37:46;;;;;;;11.00;6.90;;;;;;;15.87;94.64;99069.19;4152988;28;20657;-82
2022/10/07 07:39:50;;;;;;;8.90;6.40;;;;;;;15.89;92.67;99062.88;4167916;28;20652;-83
2022/10/07 07:41:54;;;;;;;10.00;6.33;;;;;;;15.94;93.54;99060.75;4146036;28;20691;-83
2022/10/07 07:44:01;;;;;;;8.40;6.13;;;;;;;16.00;93.42;99062.91;4170975;28;20760;-83
2022/10/07 07:46:05;;;;;;;6.90;5.80;;;;;;;16.14;91.16;99062.72;4170291;28;21287;-83
2022/10/07 07:48:09;;;;;;;10.20;6.10;;;;;;;16.27;92.37;99066.16;4185403;28;20638;-83
2022/10/07 07:50:12;;;;;;;10.83;6.00;;;;;;;16.35;92.28;99056.69;4171323;28;20702;-83
2022/10/07 07:52:15;;;;;;;8.23;5.90;;;;;;;16.38;90.85;99061.72;4163759;28;21257;-83
2022/10/07 07:54:21;;;;;;;10.63;5.60;;;;;;;16.45;91.85;99056.81;4149106;28;20644;-82
2022/10/07 07:56:25;;;;;;;8.03;5.83;;;;;;;16.55;90.95;99048.97;4146060;28;20638;-82
2022/10/07 07:58:29;;;;;;;10.67;5.73;;;;;;;16.69;90.19;99051.38;4169594;28;20660;-83
2022/10/07 08:00:34;;;;;;;6.77;5.10;;;;;;;16.80;90.01;99054.00;4167430;28;20650;-83
2022/10/07 08:02:39;;;;;;;12.13;5.70;;;;;;;16.82;90.40;99052.06;4152295;28;20683;-83
2022/10/07 08:04:45;;;;;;;9.23;5.13;;;;;;;16.84;89.59;99052.81;4162921;28;20640;-83
2022/10/07 08:06:49;;;;;;;9.33;5.57;;;;;;;16.84;90.00;99060.72;4150887;28;20627;-83
2022/10/07 08:08:56;;;;;;;8.93;5.90;;;;;;;16.96;91.25;99054.50;4170614;28;20727;-82
2022/10/07 08:11:06;;;;;;;9.20;6.07;;;;;;;17.23;90.47;99057.59;4153013;28;20638;-83
2022/10/07 08:13:10;;;;;;;10.03;5.90;;;;;;;17.46;89.77;99055.63;4167953;28;20663;-83
2022/10/07 08:15:14;;;;;;;6.83;5.03;;;;;;;17.50;88.86;99058.88;4165222;28;20660;-83
2022/10/07 08:17:18;;;;;;;7.10;5.17;;;;;;;17.46;88.38;99058.28;4151105;28;20686;-83
2022/10/07 08:19:21;;;;;;;15.60;5.40;;;;;;;17.41;88.79;99049.06;4168101;28;20660;-83
2022/10/07 08:21:26;;;;;;;11.47;5.40;;;;;;;17.52;88.51;99049.88;4149423;28;20730;-83
2022/10/07 08:23:33;;;;;;;6.60;5.03;;;;;;;17.71;89.61;99051.84;4166787;28;20633;-82
2022/10/07 08:25:40;;;;;;;7.37;5.20;;;;;;;17.89;87.06;99048.56;4151909;28;21073;-83
2022/10/07 08:27:43;;;;;;;9.47;5.70;;;;;;;18.17;85.95;99050.59;4157103;28;20637;-83
2022/10/07 08:29:47;;;;;;;8.90;4.73;;;;;;;18.37;85.80;99047.13;4152890;28;21023;-82
2022/10/07 08:31:52;;;;;;;7.27;4.83;;;;;;;18.46;84.76;99048.03;4182943;28;21192;-82
2022/10/07 08:33:58;;;;;;;7.27;5.30;;;;;;;18.51;84.76;99037.06;4170256;28;21018;-82
2022/10/07 08:36:02;;;;;;;7.33;4.80;;;;;;;18.66;84.83;99035.78;4173038;28;20638;-83
2022/10/07 08:38:05;;;;;;;6.23;4.80;;;;;;;18.78;83.48;99029.41;4167594;28;20725;-82
2022/10/07 08:40:14;;;;;;;7.17;4.60;;;;;;;18.96;83.89;99032.16;4166099;28;20630;-82
2022/10/07 08:42:25;;;;;;;9.77;6.57;;;;;;;19.22;85.95;99035.19;4163935;28;20730;-83
2022/10/07 08:44:31;;;;;;;7.07;5.20;;;;;;;19.38;84.43;99047.75;4166375;28;20626;-83
2022/10/07 08:46:36;;;;;;;7.93;5.37;;;;;;;19.54;84.41;99032.19;4164009;28;20636;-84
2022/10/07 08:48:42;;;;;;;8.03;4.97;;;;;;;19.63;82.70;99030.53;4165026;28;20642;-84
2022/10/07 08:50:50;;;;;;;9.43;5.10;;;;;;;19.68;80.60;99023.88;4165366;28;20673;-83
2022/10/07 08:52:55;;;;;;;7.20;4.77;;;;;;;19.76;82.50;99037.25;4152077;28;21212;-81
2022/10/07 08:55:00;;;;;;;7.47;4.80;;;;;;;19.92;81.46;99034.91;4161348;28;20638;-82
2022/10/07 08:57:08;;;;;;;5.40;4.60;;;;;;;20.04;82.98;99026.69;4164347;28;20640;-82
2022/10/07 08:59:19;;;;;;;6.73;4.43;;;;;;;19.99;79.36;99034.19;4159710;28;20684;-80
2022/10/07 09:01:31;;;;;;;7.47;4.50;;;;;;;19.99;79.13;99022.78;4161242;28;21244;-81
2022/10/07 09:03:44;;;;;;;5.83;4.20;;;;;;;19.98;77.94;99015.78;4152431;28;20629;-81
2022/10/07 09:05:48;;;;;;;4.83;3.77;;;;;;;19.99;78.11;99017.47;4168806;28;21070;-81
2022/10/07 09:07:54;;;;;;;8.83;4.03;;;;;;;20.04;78.89;99016.09;4163866;28;20648;-81
2022/10/07 09:10:00;;;;;;;6.13;4.40;;;;;;;20.02;77.69;99007.44;4148727;28;20674;-81
2022/10/07 09:12:07;;;;;;;6.67;3.90;;;;;;;20.09;80.03;99008.56;4166547;28;20798;-81
2022/10/07 09:14:20;;;;;;;6.20;3.60;;;;;;;20.19;77.75;99012.03;4164528;28;20776;-81
2022/10/07 09:16:26;;;;;;;5.60;4.03;;;;;;;20.25;77.82;99006.16;4165300;28;20690;-81
2022/10/07 09:18:31;;;;;;;4.90;4.40;;;;;;;20.36;79.97;99000.69;4161752;28;20665;-81
2022/10/07 09:20:40;;;;;;;6.33;3.97;;;;;;;20.49;80.10;99003.88;4161491;28;20728;-81
2022/10/07 09:22:47;;;;;;;5.67;3.97;;;;;;;20.58;78.90;99001.22;4161133;28;20633;-81
2022/10/07 09:24:54;;;;;;;7.07;4.60;;;;;;;20.63;77.73;98998.94;4164728;28;20626;-80
2022/10/07 09:27:00;;;;;;;5.73;4.20;;;;;;;20.66;77.84;98998.66;4171223;28;20650;-80
2022/10/07 09:29:03;;;;;;;5.67;3.70;;;;;;;20.61;76.64;98990.31;4165489;28;21053;-81
2022/10/07 09:31:07;;;;;;;5.77;4.40;;;;;;;20.70;80.20;98984.16;4156221;28;20633;-80
2022/10/07 09:33:15;;;;;;;9.07;4.83;;;;;;;20.79;80.37;98983.28;4176814;28;21095;-81
2022/10/07 09:35:20;;;;;;;7.57;4.20;;;;;;;20.86;79.70;98990.50;4169416;28;20636;-80
2022/10/07 09:37:26;;;;;;;9.60;3.93;;;;;;;20.93;79.50;98977.50;4159945;28;20674;-80
2022/10/07 09:39:29;;;;;;;5.27;3.50;;;;;;;21.02;79.47;98982.75;4175095;28;21176;-79
2022/10/07 09:41:35;;;;;;;4.80;3.80;;;;;;;21.05;79.85;98978.94;4172114;28;20641;-80
2022/10/07 09:43:41;;;;;;;7.90;3.57;;;;;;;21.12;79.01;98974.75;4167578;28;20629;-80
2022/10/07 09:45:45;;;;;;;4.93;3.40;;;;;;;21.14;78.73;98978.06;4184657;28;20643;-80
2022/10/07 09:47:52;;;;;;;8.40;4.30;;;;;;;21.11;79.96;98973.06;4170501;28;20643;-81
2022/10/07 09:49:58;;;;;;;5.30;3.97;;;;;;;21.15;80.61;98971.78;4169016;28;20985;-80
2022/10/07 09:52:03;;;;;;;4.90;4.10;;;;;;;21.17;78.85;98975.13;4174684;28;20616;-80
2022/10/07 09:54:20;;;;;;;6.07;4.07;;;;;;;21.26;78.65;98974.22;4171801;28;21085;-80